Time;durP1;ratioP1;P1;durP2;ratioP2;P2;SDS_P1;SDS_P2;PMS_P1;PMS_P2;Temp;Humidity;BMP_temperature;BMP_pressure;BME280_temperature;BME280_humidity;BME280_pressure;Samples;Min_cycle;Max_cycle;Signal;HPM_P1;HPM_P2
2021/12/29 00:00:28;;;;;;;14.10;7.70;;;23.80;42.90;;;;;;214265;1309;25618;-61
2021/12/29 00:05:51;;;;;;;11.50;7.50;;;23.80;42.90;;;;;;214008;1316;25528;-61
2021/12/29 00:11:10;;;;;;;10.40;7.70;;;23.80;43.00;;;;;;213996;1309;22557;-60
2021/12/29 00:16:17;;;;;;;10.30;6.90;;;23.80;42.60;;;;;;213618;1312;22598;-60
2021/12/29 00:21:26;;;;;;;11.90;7.40;;;23.80;42.70;;;;;;214206;1309;25864;-60
2021/12/29 00:26:34;;;;;;;10.60;7.00;;;23.80;42.50;;;;;;214243;1314;22611;-60
2021/12/29 00:31:41;;;;;;;10.50;6.70;;;23.80;42.60;;;;;;213484;1318;26735;-58
2021/12/29 00:37:05;;;;;;;11.70;7.00;;;23.70;42.70;;;;;;214073;1309;25527;-59
2021/12/29 00:42:32;;;;;;;8.80;6.30;;;23.70;43.00;;;;;;214089;1310;22619;-61
2021/12/29 00:48:10;;;;;;;10.30;6.70;;;23.70;43.10;;;;;;213821;1309;22564;-64
2021/12/29 00:53:17;;;;;;;9.90;6.60;;;23.60;43.10;;;;;;214215;1314;22776;-63
2021/12/29 00:58:29;;;;;;;;;;;23.60;43.10;;;;;;214164;1309;25419;-60
2021/12/29 01:03:44;;;;;;;9.80;6.60;;;23.60;43.10;;;;;;213285;1313;680788;-62
2021/12/29 01:08:50;;;;;;;8.90;6.70;;;23.50;43.00;;;;;;213711;1311;22590;-63
2021/12/29 01:13:53;;;;;;;9.50;6.20;;;23.50;42.90;;;;;;214272;1312;22607;-61
2021/12/29 01:18:57;;;;;;;8.80;6.30;;;23.60;43.00;;;;;;214235;1316;22611;-59
2021/12/29 01:24:02;;;;;;;8.80;6.00;;;23.60;42.80;;;;;;214157;1309;22581;-62
2021/12/29 01:29:16;;;;;;;9.20;6.30;;;23.60;42.80;;;;;;214177;1309;22588;-64
2021/12/29 01:34:24;;;;;;;8.50;5.80;;;23.60;42.80;;;;;;214249;1309;22570;-60
2021/12/29 01:39:32;;;;;;;10.60;6.30;;;23.60;42.60;;;;;;214066;1309;22620;-61
2021/12/29 01:44:37;;;;;;;10.00;6.00;;;23.60;42.70;;;;;;214080;1313;22581;-61
2021/12/29 01:49:44;;;;;;;9.70;6.10;;;23.60;42.80;;;;;;213209;1316;22591;-61
2021/12/29 01:54:48;;;;;;;8.50;5.80;;;23.60;42.50;;;;;;214159;1309;26690;-59
2021/12/29 01:59:55;;;;;;;7.80;5.20;;;23.60;42.80;;;;;;214064;1309;24297;-61
2021/12/29 02:05:01;;;;;;;8.50;6.10;;;23.70;42.40;;;;;;214095;1309;25530;-62
2021/12/29 02:10:15;;;;;;;8.20;5.10;;;23.70;42.40;;;;;;213524;1312;22575;-61
2021/12/29 02:15:19;;;;;;;9.60;5.10;;;23.70;42.40;;;;;;214249;1315;22596;-61
2021/12/29 02:20:23;;;;;;;7.60;5.60;;;23.70;42.40;;;;;;213418;1312;22600;-61
2021/12/29 02:25:46;;;;;;;8.20;5.60;;;23.60;42.50;;;;;;214387;1315;26817;-60
2021/12/29 02:30:55;;;;;;;9.10;5.80;;;23.70;42.40;;;;;;214258;1312;22831;-60
2021/12/29 02:36:00;;;;;;;6.60;4.80;;;23.70;42.40;;;;;;214521;1309;22593;-60
2021/12/29 02:41:08;;;;;;;10.30;5.50;;;23.60;42.50;;;;;;213417;1316;22644;-61
2021/12/29 02:46:15;;;;;;;7.60;4.80;;;23.60;42.70;;;;;;214255;1310;22605;-60
2021/12/29 02:51:19;;;;;;;8.50;5.40;;;23.60;42.40;;;;;;214239;1310;23163;-62
2021/12/29 02:56:26;;;;;;;8.30;4.90;;;23.60;42.40;;;;;;214223;1315;22574;-59
2021/12/29 03:01:30;;;;;;;7.60;5.00;;;23.60;42.50;;;;;;214071;1310;24327;-61
2021/12/29 03:06:34;;;;;;;7.70;4.80;;;23.60;42.40;;;;;;213340;1312;25344;-61
2021/12/29 03:11:40;;;;;;;7.80;4.90;;;23.60;42.50;;;;;;214238;1315;24302;-61
2021/12/29 03:16:44;;;;;;;7.90;4.90;;;23.60;42.40;;;;;;213303;1315;22603;-60
2021/12/29 03:21:47;;;;;;;7.10;4.80;;;23.60;42.40;;;;;;214124;1314;24255;-60
2021/12/29 03:26:51;;;;;;;6.60;4.70;;;23.60;42.40;;;;;;213527;1318;22563;-62
2021/12/29 03:31:54;;;;;;;8.50;4.80;;;23.70;42.40;;;;;;214146;1315;22574;-62
2021/12/29 03:36:58;;;;;;;7.60;4.70;;;23.70;42.40;;;;;;214089;1315;24014;-61
2021/12/29 03:42:01;;;;;;;8.10;4.80;;;23.70;42.50;;;;;;214216;1309;22581;-62
2021/12/29 03:47:05;;;;;;;6.60;4.30;;;23.70;42.40;;;;;;214212;1310;24276;-62
2021/12/29 03:52:09;;;;;;;6.30;4.10;;;23.70;42.30;;;;;;213417;1312;24325;-59
2021/12/29 03:57:12;;;;;;;6.00;4.00;;;23.70;42.20;;;;;;213468;1317;22570;-61
2021/12/29 04:02:16;;;;;;;6.10;4.30;;;23.70;42.30;;;;;;213820;1315;24276;-60
2021/12/29 04:07:19;;;;;;;7.50;4.20;;;23.80;42.30;;;;;;214087;1312;22574;-61
2021/12/29 04:12:23;;;;;;;5.80;3.80;;;23.70;42.40;;;;;;214034;1314;24406;-61
2021/12/29 04:17:36;;;;;;;5.80;4.00;;;23.70;42.30;;;;;;214169;1314;24247;-62
2021/12/29 04:22:40;;;;;;;7.50;4.50;;;23.70;42.40;;;;;;214409;1315;24280;-60
2021/12/29 04:27:44;;;;;;;5.60;3.70;;;23.70;42.40;;;;;;214386;1309;23299;-62
2021/12/29 04:32:48;;;;;;;6.30;4.30;;;23.70;42.40;;;;;;214284;1313;24235;-61
2021/12/29 04:37:52;;;;;;;5.80;4.10;;;23.70;42.40;;;;;;214454;1309;22635;-60
2021/12/29 04:42:55;;;;;;;6.20;4.20;;;23.70;42.30;;;;;;214200;1309;24343;-60
2021/12/29 04:48:10;;;;;;;6.20;4.30;;;23.70;42.40;;;;;;213604;1312;25482;-62
2021/12/29 04:53:13;;;;;;;7.80;4.50;;;23.70;42.30;;;;;;214243;1309;22616;-62
2021/12/29 04:58:20;;;;;;;6.10;4.00;;;23.70;42.40;;;;;;214292;1314;24249;-61
2021/12/29 05:03:25;;;;;;;7.20;4.00;;;23.70;42.30;;;;;;213578;1317;24238;-60
2021/12/29 05:08:29;;;;;;;5.70;4.10;;;23.70;42.40;;;;;;214444;1309;25263;-59
2021/12/29 05:13:36;;;;;;;5.80;4.20;;;23.70;42.40;;;;;;214273;1309;24430;-60
2021/12/29 05:18:40;;;;;;;6.10;4.30;;;23.80;42.20;;;;;;213352;1311;22642;-60
2021/12/29 05:23:43;;;;;;;6.40;4.20;;;23.80;42.20;;;;;;213668;1312;22567;-61
2021/12/29 05:28:47;;;;;;;6.20;4.00;;;23.80;42.30;;;;;;213460;1312;24257;-63
2021/12/29 05:33:55;;;;;;;6.50;4.20;;;23.80;42.30;;;;;;213989;1312;25638;-63
2021/12/29 05:38:59;;;;;;;8.20;4.30;;;23.70;42.20;;;;;;213538;1317;25207;-62
2021/12/29 05:44:04;;;;;;;5.80;3.90;;;23.80;42.30;;;;;;214172;1312;25555;-62
2021/12/29 05:49:23;;;;;;;6.70;4.20;;;23.70;42.30;;;;;;214290;1309;22554;-63
2021/12/29 05:54:43;;;;;;;8.50;4.10;;;23.70;42.30;;;;;;214314;1309;25572;-61
2021/12/29 05:59:55;;;;;;;5.50;4.00;;;23.70;42.40;;;;;;213644;1312;25701;-60
2021/12/29 06:05:17;;;;;;;7.30;4.30;;;23.70;42.30;;;;;;214287;1309;24371;-61
2021/12/29 06:10:33;;;;;;;6.30;3.90;;;23.60;42.30;;;;;;214311;1309;22558;-61
2021/12/29 06:15:52;;;;;;;6.60;4.00;;;23.70;42.40;;;;;;214214;1309;25563;-61
2021/12/29 06:20:57;;;;;;;5.80;4.10;;;23.70;42.40;;;;;;214334;1310;22577;-62
2021/12/29 06:26:01;;;;;;;6.10;4.00;;;23.70;42.30;;;;;;214315;1310;25616;-61
2021/12/29 06:31:05;;;;;;;8.40;4.50;;;23.80;42.30;;;;;;214375;1309;25539;-62
2021/12/29 06:36:09;;;;;;;5.20;3.70;;;23.70;42.30;;;;;;214267;1309;23023;-63
2021/12/29 06:41:12;;;;;;;5.50;3.60;;;23.70;42.50;;;;;;214169;1309;22590;-61
2021/12/29 06:46:16;;;;;;;6.50;4.00;;;23.80;42.40;;;;;;214277;1309;24245;-61
2021/12/29 06:51:20;;;;;;;5.90;4.00;;;23.80;42.20;;;;;;214308;1309;22657;-60
2021/12/29 06:56:34;;;;;;;4.80;3.40;;;23.80;42.20;;;;;;214873;1309;22798;-60
2021/12/29 07:01:38;;;;;;;5.10;3.60;;;23.80;42.20;;;;;;214371;1310;22624;-60
2021/12/29 07:06:43;;;;;;;6.40;3.80;;;23.80;42.20;;;;;;214296;1309;24244;-62
2021/12/29 07:11:47;;;;;;;5.00;3.50;;;23.80;42.10;;;;;;214434;1309;24200;-62
2021/12/29 07:16:53;;;;;;;5.80;3.80;;;23.80;42.20;;;;;;213806;1311;22566;-60
2021/12/29 07:22:00;;;;;;;10.80;4.20;;;23.80;42.30;;;;;;214755;1312;24695;-60
2021/12/29 07:27:03;;;;;;;7.70;3.80;;;23.80;42.50;;;;;;214025;1311;22727;-59
2021/12/29 07:32:07;;;;;;;7.80;3.70;;;23.80;42.70;;;;;;213652;1312;22577;-63
2021/12/29 07:37:12;;;;;;;5.70;3.60;;;23.80;43.30;;;;;;214284;1309;24223;-63
2021/12/29 07:42:15;;;;;;;11.80;4.60;;;23.80;43.70;;;;;;214316;1310;24280;-61
2021/12/29 07:47:19;;;;;;;6.10;3.90;;;23.80;43.40;;;;;;214107;1309;24433;-62
2021/12/29 07:52:22;;;;;;;7.60;4.10;;;23.80;43.50;;;;;;213728;1312;25342;-61
2021/12/29 07:57:28;;;;;;;8.90;4.10;;;23.80;43.80;;;;;;214038;1309;24280;-60
2021/12/29 08:02:32;;;;;;;7.80;4.20;;;23.80;43.40;;;;;;213892;1311;25509;-60
2021/12/29 08:07:36;;;;;;;6.70;4.00;;;23.80;43.50;;;;;;214247;1309;22577;-65
2021/12/29 08:12:40;;;;;;;6.80;4.20;;;23.80;43.50;;;;;;214364;1309;25380;-60
2021/12/29 08:17:50;;;;;;;8.70;4.40;;;23.80;44.10;;;;;;214279;1309;22581;-62
2021/12/29 08:23:14;;;;;;;10.00;4.70;;;23.80;44.50;;;;;;213636;1312;22593;-56
2021/12/29 08:28:18;;;;;;;8.90;5.00;;;23.80;44.10;;;;;;214489;1309;22577;-57
2021/12/29 08:33:26;;;;;;;8.70;4.50;;;23.80;44.10;;;;;;214427;1309;24244;-55
2021/12/29 08:38:42;;;;;;;10.50;4.50;;;23.80;44.00;;;;;;213574;1312;25593;-57
2021/12/29 08:43:53;;;;;;;8.80;4.70;;;23.80;43.80;;;;;;214115;1309;23009;-58
2021/12/29 08:49:00;;;;;;;6.60;3.90;;;23.80;43.70;;;;;;214276;1309;25833;-57
2021/12/29 08:54:04;;;;;;;15.70;5.40;;;23.80;43.80;;;;;;214060;1309;22568;-57
2021/12/29 08:59:12;;;;;;;13.80;4.70;;;23.80;43.60;;;;;;214088;1309;25479;-56
2021/12/29 09:04:20;;;;;;;9.10;4.60;;;23.80;43.90;;;;;;211999;1309;2921980;-58
2021/12/29 09:09:30;;;;;;;11.90;4.80;;;23.80;43.60;;;;;;213869;1309;24332;-58
2021/12/29 09:14:40;;;;;;;9.00;4.40;;;23.80;43.50;;;;;;214145;1309;25510;-59
2021/12/29 09:19:50;;;;;;;8.50;4.50;;;23.90;43.50;;;;;;213883;1309;23127;-58
2021/12/29 09:24:54;;;;;;;11.70;4.30;;;23.90;43.50;;;;;;213462;1311;22623;-58
2021/12/29 09:30:21;;;;;;;7.00;4.60;;;23.90;43.40;;;;;;214013;1309;24695;-56
2021/12/29 09:35:39;;;;;;;10.50;4.40;;;23.90;43.60;;;;;;214019;1309;22594;-59
2021/12/29 09:40:44;;;;;;;6.50;4.30;;;23.80;43.50;;;;;;213836;1309;22709;-60
2021/12/29 09:45:52;;;;;;;9.00;4.70;;;23.80;43.60;;;;;;213652;1309;24296;-57
2021/12/29 09:51:07;;;;;;;7.80;4.20;;;23.90;43.80;;;;;;213865;1309;22590;-59
2021/12/29 09:56:22;;;;;;;9.90;4.90;;;24.00;43.40;;;;;;213970;1309;24323;-59
2021/12/29 10:01:29;;;;;;;6.50;4.20;;;24.00;43.40;;;;;;213819;1309;22614;-61
2021/12/29 10:06:37;;;;;;;7.00;4.40;;;23.90;43.40;;;;;;214073;1309;22592;-60
2021/12/29 10:11:41;;;;;;;8.50;4.30;;;23.90;43.50;;;;;;213830;1309;25536;-63
2021/12/29 10:16:49;;;;;;;7.00;4.20;;;23.90;43.70;;;;;;214647;1309;24395;-57
2021/12/29 10:21:53;;;;;;;8.80;4.50;;;23.80;43.60;;;;;;214033;1309;22589;-58
2021/12/29 10:27:00;;;;;;;6.40;3.70;;;23.90;43.80;;;;;;214606;1309;25491;-58
2021/12/29 10:32:04;;;;;;;6.70;4.80;;;23.90;44.10;;;;;;214390;1311;22664;-59
2021/12/29 10:37:11;;;;;;;7.90;4.50;;;23.90;44.10;;;;;;214232;1312;24705;-58
2021/12/29 10:42:21;;;;;;;8.60;4.60;;;23.90;44.40;;;;;;214319;1309;22590;-59
2021/12/29 10:47:33;;;;;;;10.20;5.00;;;23.80;44.10;;;;;;213570;1311;24445;-60
2021/12/29 10:52:45;;;;;;;11.40;5.30;;;23.80;44.50;;;;;;214293;1309;25496;-60
2021/12/29 10:58:14;;;;;;;18.40;4.60;;;23.80;45.90;;;;;;213597;1311;22797;-56
2021/12/29 11:03:25;;;;;;;10.70;4.50;;;23.90;46.70;;;;;;214220;1309;22573;-62
2021/12/29 11:08:45;;;;;;;10.20;5.40;;;23.90;46.40;;;;;;213602;1311;22647;-58
2021/12/29 11:13:49;;;;;;;8.70;4.30;;;24.00;46.10;;;;;;214409;1309;25374;-55
2021/12/29 11:18:53;;;;;;;10.60;4.90;;;24.00;46.00;;;;;;213913;1309;24359;-56
2021/12/29 11:24:12;;;;;;;9.60;5.10;;;23.90;45.90;;;;;;213549;1312;22597;-56
2021/12/29 11:29:22;;;;;;;8.20;4.60;;;23.80;46.00;;;;;;214318;1310;24255;-58
2021/12/29 11:34:31;;;;;;;11.40;5.40;;;23.70;46.40;;;;;;214098;1310;23081;-57
2021/12/29 11:39:41;;;;;;;7.40;4.50;;;23.60;46.40;;;;;;213946;1309;22574;-59
2021/12/29 11:44:45;;;;;;;7.40;4.50;;;23.50;46.60;;;;;;213557;1312;22568;-57
2021/12/29 11:49:49;;;;;;;10.70;4.90;;;23.50;46.80;;;;;;214024;1312;25466;-53
2021/12/29 11:55:17;;;;;;;11.10;4.70;;;23.30;46.60;;;;;;214325;1309;22619;-54
2021/12/29 12:00:24;;;;;;;9.80;4.50;;;23.30;46.80;;;;;;214117;1309;22664;-56
2021/12/29 12:05:37;;;;;;;10.70;5.70;;;23.20;46.90;;;;;;213860;1312;25712;-57
2021/12/29 12:10:43;;;;;;;9.90;5.00;;;23.20;47.00;;;;;;213636;1313;24158;-56
2021/12/29 12:15:50;;;;;;;11.50;5.40;;;23.00;47.20;;;;;;214438;1316;25340;-55
2021/12/29 12:21:01;;;;;;;7.90;4.80;;;22.90;47.40;;;;;;214229;1315;22818;-52
2021/12/29 12:26:10;;;;;;;8.80;4.70;;;22.90;47.90;;;;;;214207;1310;22656;-57
2021/12/29 12:31:32;;;;;;;11.80;5.60;;;22.80;48.10;;;;;;214155;1309;22603;-58
2021/12/29 12:36:43;;;;;;;7.10;4.40;;;22.80;47.80;;;;;;214209;1309;22725;-61
2021/12/29 12:41:58;;;;;;;9.70;5.10;;;22.70;47.80;;;;;;214073;1313;22796;-59
2021/12/29 12:47:22;;;;;;;9.10;5.30;;;22.70;48.20;;;;;;213849;1310;24323;-58
2021/12/29 12:52:27;;;;;;;9.80;5.20;;;22.70;47.80;;;;;;215673;1315;22641;-59
2021/12/29 12:57:46;;;;;;;11.00;5.10;;;22.70;47.70;;;;;;214194;1315;24482;-55
2021/12/29 13:03:00;;;;;;;10.40;5.20;;;22.70;47.60;;;;;;214103;1315;22620;-53
2021/12/29 13:08:16;;;;;;;8.30;4.60;;;22.70;47.70;;;;;;214074;1314;25418;-54
2021/12/29 13:13:30;;;;;;;9.70;5.40;;;22.70;47.50;;;;;;214089;1315;25640;-52
2021/12/29 13:18:45;;;;;;;8.60;5.10;;;22.80;47.20;;;;;;214212;1309;24365;-57
2021/12/29 13:24:18;;;;;;;9.90;5.20;;;23.10;47.00;;;;;;214058;1314;22665;-58
2021/12/29 13:29:23;;;;;;;12.70;5.60;;;23.30;47.00;;;;;;214052;1315;22633;-53
2021/12/29 13:34:30;;;;;;;10.90;5.50;;;23.50;46.30;;;;;;214072;1315;22593;-50
2021/12/29 13:39:34;;;;;;;8.10;5.30;;;23.60;46.00;;;;;;214666;1316;25343;-52
2021/12/29 13:44:40;;;;;;;10.60;5.60;;;23.70;45.80;;;;;;214425;1315;25631;-49
2021/12/29 13:49:45;;;;;;;9.80;5.30;;;23.70;45.90;;;;;;214469;1316;24245;-53
2021/12/29 13:55:03;;;;;;;10.40;5.10;;;23.70;45.70;;;;;;214065;1315;24338;-56
2021/12/29 14:00:07;;;;;;;8.90;5.20;;;23.80;45.70;;;;;;214257;1315;22760;-61
2021/12/29 14:05:16;;;;;;;9.40;5.10;;;23.80;45.60;;;;;;214167;1309;22794;-57
2021/12/29 14:10:25;;;;;;;12.60;5.60;;;23.70;45.80;;;;;;214259;1315;25530;-59
2021/12/29 14:15:37;;;;;;;8.40;5.70;;;23.70;45.80;;;;;;214233;1315;22577;-54
2021/12/29 14:20:41;;;;;;;15.60;6.00;;;23.70;45.80;;;;;;214437;1314;22630;-61
2021/12/29 14:25:48;;;;;;;8.90;5.40;;;23.70;45.70;;;;;;214406;1315;23123;-54
2021/12/29 14:31:00;;;;;;;9.60;6.00;;;23.70;45.80;;;;;;214371;1309;24464;-56
2021/12/29 14:36:05;;;;;;;9.40;6.10;;;23.70;45.70;;;;;;214171;1316;22679;-56
2021/12/29 14:41:21;;;;;;;10.70;5.70;;;23.80;45.80;;;;;;214385;1316;23117;-55
2021/12/29 14:46:28;;;;;;;9.00;6.10;;;23.80;45.90;;;;;;214392;1316;22651;-50
2021/12/29 14:51:32;;;;;;;14.90;6.60;;;23.80;45.90;;;;;;214384;1309;22701;-57
2021/12/29 14:56:41;;;;;;;12.90;6.30;;;23.90;45.80;;;;;;214290;1317;22742;-51
2021/12/29 15:01:45;;;;;;;17.90;6.10;;;23.90;45.60;;;;;;214591;1315;25504;-54
2021/12/29 15:06:49;;;;;;;15.70;6.80;;;24.00;45.50;;;;;;214188;1316;22806;-53
2021/12/29 15:11:55;;;;;;;12.40;6.60;;;24.00;45.80;;;;;;213904;1312;24280;-51
2021/12/29 15:17:02;;;;;;;12.70;6.20;;;24.00;45.60;;;;;;214186;1317;24302;-53
2021/12/29 15:22:05;;;;;;;16.20;7.50;;;24.00;45.80;;;;;;214182;1312;22605;-53
2021/12/29 15:27:12;;;;;;;14.30;7.70;;;24.00;45.90;;;;;;214229;1316;24273;-52
2021/12/29 15:32:20;;;;;;;18.20;7.20;;;23.90;45.90;;;;;;215714;1317;26763;-54
2021/12/29 15:37:24;;;;;;;15.50;7.30;;;23.90;46.50;;;;;;214192;1316;25342;-52
2021/12/29 15:42:28;;;;;;;17.30;7.80;;;23.90;45.40;;;;;;213754;1318;24400;-53
2021/12/29 15:47:32;;;;;;;14.00;7.80;;;24.00;45.90;;;;;;214086;1311;24326;-54
2021/12/29 15:52:40;;;;;;;14.80;7.90;;;23.90;45.80;;;;;;214477;1317;22583;-54
2021/12/29 15:57:45;;;;;;;23.80;8.70;;;24.00;45.90;;;;;;214359;1315;22628;-56
2021/12/29 16:02:53;;;;;;;19.20;8.80;;;24.00;45.90;;;;;;214695;1315;22671;-55
2021/12/29 16:08:01;;;;;;;21.00;9.30;;;24.10;48.30;;;;;;214006;1312;24397;-56
2021/12/29 16:13:08;;;;;;;20.00;9.00;;;24.20;49.70;;;;;;214172;1314;24296;-57
2021/12/29 16:18:14;;;;;;;18.90;9.10;;;24.20;50.00;;;;;;214204;1314;22668;-55
2021/12/29 16:23:32;;;;;;;18.50;8.70;;;24.10;49.90;;;;;;214183;1311;22742;-55
2021/12/29 16:28:37;;;;;;;17.20;9.40;;;24.00;49.90;;;;;;214301;1313;22547;-53
2021/12/29 16:33:47;;;;;;;16.20;8.70;;;23.90;49.60;;;;;;214339;1317;24366;-53
2021/12/29 16:38:58;;;;;;;22.00;9.30;;;23.80;49.80;;;;;;214160;1309;22724;-54
2021/12/29 16:44:17;;;;;;;18.60;9.50;;;23.60;50.60;;;;;;214210;1314;24245;-55
2021/12/29 16:49:23;;;;;;;;;;;23.50;50.30;;;;;;214123;1315;26562;-53
2021/12/29 16:54:36;;;;;;;17.00;8.80;;;23.50;50.40;;;;;;214239;1309;22590;-50
2021/12/29 16:59:44;;;;;;;21.80;10.10;;;23.40;50.70;;;;;;214389;1310;24966;-55
2021/12/29 17:04:54;;;;;;;17.20;9.00;;;23.30;51.10;;;;;;213686;1312;284283;-53
2021/12/29 17:10:10;;;;;;;19.00;8.40;;;23.30;51.40;;;;;;213622;1311;26570;-54
2021/12/29 17:15:15;;;;;;;19.00;9.00;;;23.20;51.40;;;;;;214120;1309;24278;-56
2021/12/29 17:20:21;;;;;;;20.20;9.70;;;23.10;51.40;;;;;;213836;1311;22742;-54
2021/12/29 17:25:28;;;;;;;17.40;8.70;;;23.10;51.40;;;;;;213992;1316;22665;-55
2021/12/29 17:30:57;;;;;;;19.10;9.50;;;23.10;51.30;;;;;;214071;1309;22646;-56
2021/12/29 17:37:32;;;;;;;20.40;9.60;;;23.10;51.30;;;;;;221790;1312;22401;-53
2021/12/29 17:43:07;;;;;;;18.10;10.10;;;23.10;50.90;;;;;;221152;1312;22634;-55
2021/12/29 17:48:24;;;;;;;19.10;9.80;;;22.90;51.00;;;;;;221383;1312;22624;-65
2021/12/29 17:53:29;;;;;;;23.80;9.90;;;22.90;51.20;;;;;;221259;1312;22514;-65
2021/12/29 17:58:33;;;;;;;22.50;9.80;;;22.90;51.30;;;;;;221894;1313;22464;-65
2021/12/29 18:03:37;;;;;;;25.80;10.30;;;22.80;51.40;;;;;;221607;1312;22497;-64
2021/12/29 18:08:41;;;;;;;19.30;10.70;;;22.80;51.30;;;;;;221797;1313;22514;-65
2021/12/29 18:13:53;;;;;;;17.10;9.80;;;22.80;51.50;;;;;;221709;1312;22484;-65
2021/12/29 18:19:04;;;;;;;16.90;9.60;;;22.80;51.40;;;;;;221457;1312;23244;-64
2021/12/29 18:24:11;;;;;;;17.90;9.60;;;22.80;51.20;;;;;;221415;1316;22529;-64
2021/12/29 18:29:20;;;;;;;18.70;9.80;;;22.80;51.00;;;;;;221122;1312;22242;-64
2021/12/29 18:34:30;;;;;;;18.80;9.60;;;22.80;51.00;;;;;;221031;1319;22479;-55
2021/12/29 18:39:40;;;;;;;20.20;9.70;;;22.80;50.90;;;;;;221448;1316;22427;-56
2021/12/29 18:44:51;;;;;;;27.00;10.50;;;22.70;51.20;;;;;;221450;1318;22450;-54
2021/12/29 18:49:56;;;;;;;19.10;9.50;;;22.60;51.30;;;;;;221275;1316;23208;-56
2021/12/29 18:55:07;;;;;;;18.20;10.60;;;22.60;51.40;;;;;;220882;1316;22535;-57
2021/12/29 19:00:20;;;;;;;18.10;9.90;;;22.60;51.50;;;;;;221682;1312;22318;-55
2021/12/29 19:05:25;;;;;;;20.20;9.90;;;22.50;51.30;;;;;;221700;1312;23314;-49
2021/12/29 19:10:28;;;;;;;19.50;10.50;;;22.50;51.50;;;;;;221808;1314;23297;-51
2021/12/29 19:15:34;;;;;;;25.90;10.40;;;22.40;51.40;;;;;;221755;1312;22462;-51
2021/12/29 19:20:45;;;;;;;21.80;8.70;;;22.50;51.60;;;;;;221595;1318;22425;-50
2021/12/29 19:25:50;;;;;;;24.20;10.40;;;22.80;51.30;;;;;;221171;1319;22437;-53
2021/12/29 19:30:57;;;;;;;20.30;9.40;;;23.20;51.50;;;;;;221680;1314;22258;-54
2021/12/29 19:36:01;;;;;;;16.90;9.80;;;23.50;50.80;;;;;;221575;1313;22613;-53
2021/12/29 19:41:08;;;;;;;21.90;9.80;;;23.80;50.70;;;;;;221358;1312;22551;-54
2021/12/29 19:46:16;;;;;;;20.50;10.50;;;24.00;50.30;;;;;;221730;1318;22373;-54
2021/12/29 19:51:28;;;;;;;20.60;10.90;;;24.20;49.90;;;;;;221631;1318;22289;-54
2021/12/29 19:56:37;;;;;;;16.60;10.60;;;24.20;50.00;;;;;;221908;1318;22585;-53
2021/12/29 20:01:42;;;;;;;17.60;10.40;;;24.10;50.20;;;;;;221802;1318;22538;-54
2021/12/29 20:06:48;;;;;;;15.80;10.40;;;23.90;50.30;;;;;;221922;1317;22464;-50
2021/12/29 20:12:08;;;;;;;17.10;10.50;;;23.80;50.70;;;;;;221324;1312;23157;-51
2021/12/29 20:17:13;;;;;;;15.80;9.50;;;23.70;51.00;;;;;;221693;1317;23756;-50
2021/12/29 20:22:18;;;;;;;18.80;9.10;;;23.60;51.40;;;;;;221703;1316;22428;-53
2021/12/29 20:27:22;;;;;;;15.30;9.40;;;23.50;51.30;;;;;;221729;1316;22446;-54
2021/12/29 20:32:28;;;;;;;13.60;9.20;;;23.30;51.30;;;;;;221686;1313;22547;-56
2021/12/29 20:37:31;;;;;;;15.90;9.70;;;23.30;51.30;;;;;;221787;1315;22503;-53
2021/12/29 20:42:35;;;;;;;19.90;9.50;;;23.20;51.20;;;;;;220980;1315;22291;-52
2021/12/29 20:47:39;;;;;;;13.60;9.30;;;23.20;51.00;;;;;;221665;1316;22582;-51
2021/12/29 20:52:43;;;;;;;13.80;9.40;;;23.10;50.90;;;;;;221288;1318;23297;-55
2021/12/29 20:57:51;;;;;;;21.00;9.90;;;23.00;50.80;;;;;;220907;1317;22486;-54
2021/12/29 21:03:01;;;;;;;19.10;10.20;;;23.00;52.00;;;;;;221854;1315;23065;-55
2021/12/29 21:08:13;;;;;;;17.40;10.20;;;23.00;52.90;;;;;;221323;1318;23240;-54
2021/12/29 21:13:19;;;;;;;22.80;10.60;;;23.00;52.40;;;;;;221849;1314;22500;-55
2021/12/29 21:18:25;;;;;;;20.40;9.70;;;23.00;52.20;;;;;;221552;1314;22422;-58
2021/12/29 21:23:35;;;;;;;20.60;9.90;;;22.90;52.50;;;;;;221231;1318;22355;-51
2021/12/29 21:28:58;;;;;;;23.10;11.00;;;22.90;52.60;;;;;;221685;1315;22423;-53
2021/12/29 21:34:18;;;;;;;19.30;10.50;;;22.80;52.40;;;;;;221649;1313;22584;-54
2021/12/29 21:39:23;;;;;;;18.00;11.20;;;22.70;52.10;;;;;;221795;1317;22517;-59
2021/12/29 21:44:31;;;;;;;19.80;11.40;;;22.70;52.00;;;;;;221779;1318;22419;-56
2021/12/29 21:49:36;;;;;;;19.30;11.70;;;22.60;51.90;;;;;;221166;1319;22362;-56
2021/12/29 21:54:41;;;;;;;18.80;10.50;;;22.50;51.80;;;;;;221266;1320;22475;-56
2021/12/29 21:59:47;;;;;;;20.40;10.60;;;22.40;51.80;;;;;;221401;1319;22278;-58
2021/12/29 22:04:54;;;;;;;17.40;11.00;;;22.40;52.20;;;;;;221210;1318;22420;-58
2021/12/29 22:09:58;;;;;;;19.80;11.70;;;22.40;52.10;;;;;;221344;1318;23247;-57
2021/12/29 22:15:08;;;;;;;22.40;11.20;;;22.40;53.80;;;;;;221342;1312;23215;-58
2021/12/29 22:20:25;;;;;;;22.30;11.20;;;22.40;53.50;;;;;;221299;1316;22385;-62
2021/12/29 22:25:37;;;;;;;21.20;11.60;;;22.50;53.60;;;;;;221207;1312;22593;-63
2021/12/29 22:30:52;;;;;;;21.30;11.70;;;22.40;53.80;;;;;;221394;1312;22582;-62
2021/12/29 22:36:13;;;;;;;30.60;12.20;;;22.40;54.00;;;;;;221267;1318;22415;-62
2021/12/29 22:41:37;;;;;;;27.50;12.40;;;22.30;55.00;;;;;;221267;1316;22344;-62
2021/12/29 22:46:42;;;;;;;26.60;12.10;;;22.60;55.10;;;;;;221231;1318;22529;-62
2021/12/29 22:51:56;;;;;;;21.80;11.60;;;22.90;54.50;;;;;;221421;1319;22410;-62
2021/12/29 22:57:03;;;;;;;21.60;11.40;;;23.20;54.50;;;;;;221316;1318;23564;-62
2021/12/29 23:02:26;;;;;;;20.20;11.30;;;23.30;53.60;;;;;;221268;1312;22541;-62
2021/12/29 23:07:41;;;;;;;25.10;11.30;;;23.60;53.10;;;;;;221531;1315;22514;-62
2021/12/29 23:12:49;;;;;;;19.90;11.00;;;23.60;52.60;;;;;;221260;1317;22557;-62
2021/12/29 23:17:55;;;;;;;19.40;11.20;;;23.70;52.50;;;;;;221691;1313;22224;-62
2021/12/29 23:23:04;;;;;;;22.10;10.70;;;23.80;52.40;;;;;;221580;1315;23008;-62
2021/12/29 23:28:13;;;;;;;21.10;11.50;;;23.80;52.40;;;;;;221585;1314;22483;-63
2021/12/29 23:33:41;;;;;;;19.40;11.20;;;23.90;51.90;;;;;;221599;1314;22608;-62
2021/12/29 23:38:45;;;;;;;16.10;10.20;;;23.90;51.90;;;;;;221301;1315;22479;-62
2021/12/29 23:43:50;;;;;;;17.90;11.00;;;24.00;51.70;;;;;;221618;1312;22417;-62
2021/12/29 23:48:54;;;;;;;16.90;10.30;;;24.00;51.60;;;;;;221648;1318;22479;-63
2021/12/29 23:54:01;;;;;;;19.70;10.00;;;24.00;51.50;;;;;;221700;1318;23218;-63
2021/12/29 23:59:11;;;;;;;15.20;10.40;;;24.10;51.50;;;;;;221578;1313;23111;-62
